Time;durP1;ratioP1;P1;durP2;ratioP2;P2;SDS_P1;SDS_P2;PMS_P1;PMS_P2;Temp;Humidity;BMP_temperature;BMP_pressure;BME280_temperature;BME280_humidity;BME280_pressure;Samples;Min_cycle;Max_cycle;Signal;HPM_P1;HPM_P2
2023/01/08 00:02:24;;;;;;;14.55;3.90;;;;;;;-7.05;100.00;102287.35;1692928;83;21049;-91
2023/01/08 00:05:12;;;;;;;7.50;4.05;;;;;;;-7.11;100.00;102278.55;1660167;85;21018;-89
2023/01/08 00:07:59;;;;;;;9.25;3.65;;;;;;;-7.11;100.00;102283.02;1657704;85;21502;-87
2023/01/08 00:10:55;;;;;;;9.85;3.27;;;;;;;-7.07;100.00;102287.98;1689198;83;21061;-89
2023/01/08 00:13:42;;;;;;;16.37;3.70;;;;;;;-7.04;100.00;102287.73;1689266;83;21096;-90
2023/01/08 00:16:31;;;;;;;22.22;4.37;;;;;;;-7.09;100.00;102288.58;1651613;85;21105;-90
2023/01/08 00:19:21;;;;;;;13.40;3.80;;;;;;;-6.96;100.00;102285.80;1686754;83;21908;-89
2023/01/08 00:22:08;;;;;;;9.63;3.20;;;;;;;-6.88;100.00;102283.38;1682634;85;21084;-89
2023/01/08 00:24:57;;;;;;;13.95;3.47;;;;;;;-6.86;100.00;102278.80;1651043;84;21050;-87
2023/01/08 00:27:42;;;;;;;10.78;3.47;;;;;;;-6.81;100.00;102278.44;1652486;84;21475;-89
2023/01/08 00:30:31;;;;;;;13.18;4.47;;;;;;;-6.81;100.00;102278.44;1689487;83;21064;-89
2023/01/08 00:33:19;;;;;;;9.25;4.53;;;;;;;-6.80;100.00;102284.98;1690438;84;21516;-89
2023/01/08 00:36:09;;;;;;;9.63;3.95;;;;;;;-6.81;100.00;102282.42;1690044;84;21046;-89
2023/01/08 00:38:57;;;;;;;9.53;3.87;;;;;;;-6.77;100.00;102278.57;1622665;85;21425;-89
2023/01/08 00:41:44;;;;;;;9.18;3.95;;;;;;;-6.68;100.00;102283.14;1640572;85;21081;-89
2023/01/08 00:44:37;;;;;;;12.98;3.67;;;;;;;-6.59;100.00;102277.09;1665218;85;21669;-87
2023/01/08 00:47:27;;;;;;;9.30;3.55;;;;;;;-6.52;100.00;102280.95;1664956;85;21050;-90
2023/01/08 00:50:20;;;;;;;9.18;4.22;;;;;;;-6.47;100.00;102283.75;1689036;83;21038;-88
2023/01/08 00:53:06;;;;;;;;;;;;;;;-6.50;100.00;102280.36;1692384;84;22575;-86
2023/01/08 00:56:01;;;;;;;9.30;3.25;;;;;;;-6.46;100.00;102292.08;1688273;83;20980;-89
2023/01/08 00:58:46;;;;;;;9.80;3.62;;;;;;;-6.45;100.00;102292.42;1674810;84;21185;-90
2023/01/08 01:01:32;;;;;;;8.40;3.30;;;;;;;-6.50;100.00;102289.67;1710174;83;21054;-89
2023/01/08 01:04:18;;;;;;;7.90;3.75;;;;;;;-6.49;100.00;102288.69;1707937;83;21036;-89
2023/01/08 01:07:04;;;;;;;6.33;3.35;;;;;;;-6.47;100.00;102290.39;1683070;84;21070;-89
2023/01/08 01:09:52;;;;;;;5.65;3.00;;;;;;;-6.44;100.00;102284.33;1694922;83;21014;-86
2023/01/08 01:12:38;;;;;;;6.70;3.37;;;;;;;-6.42;100.00;102278.90;1675495;85;21018;-88
2023/01/08 01:15:24;;;;;;;8.60;4.05;;;;;;;-6.42;100.00;102276.23;1715512;82;21924;-89
2023/01/08 01:18:09;;;;;;;8.78;3.47;;;;;;;-6.41;100.00;102269.45;1716175;82;20996;-90
2023/01/08 01:20:54;;;;;;;7.17;3.77;;;;;;;-6.39;100.00;102273.33;1705981;83;21598;-88
2023/01/08 01:23:42;;;;;;;6.65;2.80;;;;;;;-6.40;100.00;102266.33;1716323;82;21052;-89
2023/01/08 01:26:30;;;;;;;8.78;3.12;;;;;;;-6.42;100.00;102257.63;1716209;82;21029;-88
2023/01/08 01:29:15;;;;;;;7.30;3.37;;;;;;;-6.42;100.00;102257.13;1716232;83;21186;-89
2023/01/08 01:32:07;;;;;;;8.78;3.67;;;;;;;-6.39;100.00;102246.23;1704248;83;21005;-88
2023/01/08 01:34:54;;;;;;;7.55;3.22;;;;;;;-6.40;100.00;102247.70;1716127;83;21120;-90
2023/01/08 01:37:40;;;;;;;8.63;3.33;;;;;;;-6.43;100.00;102248.77;1688655;84;21088;-87
2023/01/08 01:40:27;;;;;;;9.03;3.60;;;;;;;-6.41;100.00;102246.83;1705178;82;21507;-88
2023/01/08 01:43:13;;;;;;;7.62;2.98;;;;;;;-6.41;100.00;102247.33;1666257;84;21062;-88
2023/01/08 01:46:00;;;;;;;4.97;2.98;;;;;;;-6.39;100.00;102254.70;1710271;82;21507;-89
2023/01/08 01:48:49;;;;;;;9.65;3.67;;;;;;;-6.38;100.00;102257.71;1721976;83;21654;-90
2023/01/08 01:51:35;;;;;;;7.83;3.62;;;;;;;-6.37;100.00;102258.93;1718310;83;21105;-88
2023/01/08 01:54:32;;;;;;;12.68;3.20;;;;;;;-6.37;100.00;102259.42;1718398;83;21594;-84
2023/01/08 01:57:17;;;;;;;5.03;3.00;;;;;;;-6.36;100.00;102262.42;1708186;82;21011;-84
2023/01/08 02:00:08;;;;;;;8.80;4.58;;;;;;;-6.41;100.00;102269.94;1713811;82;21035;-85
2023/01/08 02:03:00;;;;;;;9.25;3.17;;;;;;;-6.46;100.00;102272.12;1675940;84;21048;-84
2023/01/08 02:06:02;;;;;;;8.43;3.80;;;;;;;-6.50;100.00;102265.73;1652296;85;21455;-84
2023/01/08 02:09:02;;;;;;;4.87;2.77;;;;;;;-6.53;100.00;102271.77;1685745;84;21166;-84
2023/01/08 02:12:18;;;;;;;8.33;3.45;;;;;;;-6.55;100.00;102277.72;1659181;84;21063;-84
2023/01/08 02:15:31;;;;;;;7.95;3.27;;;;;;;-6.55;100.00;102279.88;1685995;84;21122;-84
2023/01/08 02:18:45;;;;;;;9.75;2.65;;;;;;;-6.55;100.00;102289.19;1681453;84;21087;-84
2023/01/08 02:21:58;;;;;;;6.55;3.05;;;;;;;-6.54;100.00;102287.37;1685897;85;21979;-84
2023/01/08 02:25:21;;;;;;;8.38;3.00;;;;;;;-6.56;100.00;102283.49;1687206;83;21427;-84
2023/01/08 02:28:10;;;;;;;6.87;4.50;;;;;;;-6.55;100.00;102277.72;1691077;82;21036;-84
2023/01/08 02:30:55;;;;;;;9.38;3.72;;;;;;;-6.58;100.00;102276.11;1649599;87;21088;-84
2023/01/08 02:33:40;;;;;;;9.88;3.17;;;;;;;-6.60;100.00;102280.73;1653037;84;21492;-84
2023/01/08 02:36:43;;;;;;;7.08;3.52;;;;;;;-6.58;100.00;102281.44;1661677;85;21518;-85
2023/01/08 02:39:55;;;;;;;10.25;3.95;;;;;;;-6.59;100.00;102273.59;1658373;85;20967;-85
2023/01/08 02:42:58;;;;;;;5.87;2.87;;;;;;;-6.60;100.00;102280.73;1646479;86;21995;-84
2023/01/08 02:45:51;;;;;;;8.98;3.70;;;;;;;-6.62;100.00;102279.17;1658938;84;21059;-85
2023/01/08 02:48:42;;;;;;;12.00;3.30;;;;;;;-6.60;100.00;102270.09;1646651;85;21052;-84
2023/01/08 02:51:35;;;;;;;7.35;3.72;;;;;;;-6.57;100.00;102273.84;1641562;85;21104;-84
2023/01/08 02:54:24;;;;;;;7.65;3.40;;;;;;;-6.58;100.00;102272.12;1642162;85;25894;-85
2023/01/08 02:57:14;;;;;;;7.00;3.15;;;;;;;-6.61;100.00;102266.22;1648995;86;21021;-85
2023/01/08 03:00:00;;;;;;;8.90;2.37;;;;;;;-6.59;100.00;102266.45;1603805;87;21507;-85
2023/01/08 03:02:46;;;;;;;6.50;3.02;;;;;;;-6.64;100.00;102261.16;1659039;84;21040;-83
2023/01/08 03:05:31;;;;;;;7.15;3.00;;;;;;;-6.64;100.00;102263.32;1680531;82;21010;-83
2023/01/08 03:08:18;;;;;;;10.20;3.92;;;;;;;-6.61;100.00;102264.89;1662787;84;21030;-83
2023/01/08 03:11:06;;;;;;;6.75;3.02;;;;;;;-6.61;100.00;102258.24;1681103;82;20999;-82
2023/01/08 03:14:16;;;;;;;4.80;2.27;;;;;;;-6.58;100.00;102258.83;1665197;84;20999;-83
2023/01/08 03:17:10;;;;;;;9.08;3.12;;;;;;;-6.58;100.00;102255.33;1645474;85;21376;-83
2023/01/08 03:20:00;;;;;;;6.58;3.10;;;;;;;-6.58;100.00;102258.83;1666997;84;20998;-83
2023/01/08 03:22:48;;;;;;;7.50;2.62;;;;;;;-6.57;100.00;102259.20;1661965;85;21066;-83
2023/01/08 03:25:41;;;;;;;5.67;2.98;;;;;;;-6.57;100.00;102261.87;1679936;84;21061;-84
2023/01/08 03:28:32;;;;;;;4.70;2.30;;;;;;;-6.59;100.00;102259.81;1679597;84;21098;-83
2023/01/08 03:31:18;;;;;;;9.80;2.58;;;;;;;-6.58;100.00;102257.50;1644523;86;21050;-83
2023/01/08 03:34:03;;;;;;;5.55;2.67;;;;;;;-6.57;100.00;102269.00;1668409;84;20995;-83
2023/01/08 03:36:50;;;;;;;4.95;2.83;;;;;;;-6.58;100.00;102257.50;1700493;83;21439;-83
2023/01/08 03:39:51;;;;;;;6.25;3.00;;;;;;;-6.57;100.00;102264.53;1674772;84;21094;-83
2023/01/08 03:42:42;;;;;;;9.35;4.10;;;;;;;-6.58;100.00;102265.97;1680155;83;21078;-83
2023/01/08 03:45:27;;;;;;;5.05;2.40;;;;;;;-6.52;100.00;102258.84;1667325;84;20986;-83
2023/01/08 03:48:17;;;;;;;9.33;3.05;;;;;;;-6.55;100.00;102257.27;1656293;85;21529;-83
2023/01/08 03:51:03;;;;;;;4.15;2.52;;;;;;;-6.58;100.00;102252.18;1681153;82;21074;-83
2023/01/08 03:53:50;;;;;;;5.65;2.62;;;;;;;-6.60;100.00;102264.78;1687909;83;21116;-83
2023/01/08 03:56:36;;;;;;;5.80;2.35;;;;;;;-6.61;100.00;102262.23;1675961;84;21053;-84
2023/01/08 03:59:22;;;;;;;8.40;2.33;;;;;;;-6.62;100.00;102252.09;1680874;82;21014;-84
2023/01/08 04:02:07;;;;;;;4.50;2.17;;;;;;;-6.62;100.00;102251.25;1679511;83;21038;-84
2023/01/08 04:04:53;;;;;;;6.97;2.70;;;;;;;-6.64;100.00;102251.36;1710367;82;20994;-84
2023/01/08 04:07:39;;;;;;;5.22;2.50;;;;;;;-6.66;100.00;102257.27;1718009;83;21005;-84
2023/01/08 04:10:25;;;;;;;11.53;3.20;;;;;;;-6.68;100.00;102261.87;1716713;83;21454;-84
2023/01/08 04:13:10;;;;;;;6.12;2.75;;;;;;;-6.68;100.00;102269.00;1729718;82;21047;-84
2023/01/08 04:15:56;;;;;;;5.95;2.33;;;;;;;-6.70;100.00;102273.10;1685371;84;21005;-84
2023/01/08 04:18:41;;;;;;;6.55;2.65;;;;;;;-6.72;100.00;102269.25;1670333;83;21074;-84
2023/01/08 04:21:32;;;;;;;4.40;2.17;;;;;;;-6.74;100.00;102266.36;1710066;83;21010;-84
2023/01/08 04:24:23;;;;;;;5.92;2.75;;;;;;;-6.75;100.00;102263.31;1706355;82;21021;-84
2023/01/08 04:27:11;;;;;;;8.38;3.17;;;;;;;-6.77;100.00;102264.79;1717768;82;21006;-83
2023/01/08 04:29:58;;;;;;;5.45;2.75;;;;;;;-6.81;100.00;102271.80;1727706;82;20994;-84
2023/01/08 04:32:45;;;;;;;5.47;2.08;;;;;;;-6.82;100.00;102268.30;1718747;82;21036;-84
2023/01/08 04:35:32;;;;;;;7.30;2.52;;;;;;;-6.85;100.00;102267.19;1695404;81;21097;-84
2023/01/08 04:38:17;;;;;;;4.60;2.55;;;;;;;-6.89;100.00;102272.89;1718482;82;21010;-84
2023/01/08 04:41:05;;;;;;;6.35;2.40;;;;;;;-6.96;100.00;102272.02;1678477;83;21019;-84
2023/01/08 04:43:50;;;;;;;7.65;2.47;;;;;;;-7.00;100.00;102270.56;1719291;82;21081;-84
2023/01/08 04:46:35;;;;;;;8.35;2.25;;;;;;;-7.04;100.00;102274.94;1677736;84;21068;-84
2023/01/08 04:49:20;;;;;;;7.45;2.58;;;;;;;-7.06;100.00;102278.19;1669008;82;21001;-84
2023/01/08 04:52:06;;;;;;;4.67;2.33;;;;;;;-7.10;100.00;102280.22;1718276;83;21010;-84
2023/01/08 04:54:53;;;;;;;5.35;2.83;;;;;;;-7.11;100.00;102291.83;1695871;83;21420;-84
2023/01/08 04:57:39;;;;;;;5.03;2.70;;;;;;;-7.13;100.00;102293.75;1684519;83;21050;-84
2023/01/08 05:00:26;;;;;;;3.52;2.27;;;;;;;-7.16;100.00;102296.66;1693089;83;21053;-83
2023/01/08 05:03:10;;;;;;;4.20;2.05;;;;;;;-7.20;100.00;102292.53;1717838;83;21062;-85
2023/01/08 05:05:59;;;;;;;9.00;2.65;;;;;;;-7.27;100.00;102296.16;1703256;83;20988;-84
2023/01/08 05:08:45;;;;;;;8.73;2.50;;;;;;;-7.31;100.00;102307.14;1715630;82;21389;-84
2023/01/08 05:11:32;;;;;;;6.40;2.50;;;;;;;-7.33;100.00;102307.73;1709967;83;21532;-84
2023/01/08 05:14:24;;;;;;;10.53;3.25;;;;;;;-7.38;100.00;102303.59;1720176;82;21559;-84
2023/01/08 05:17:16;;;;;;;5.83;2.72;;;;;;;-7.48;100.00;102309.25;1696461;83;21037;-84
2023/01/08 05:20:04;;;;;;;4.72;2.52;;;;;;;-7.61;100.00;102319.11;1687209;84;20998;-84
2023/01/08 05:22:50;;;;;;;6.22;2.50;;;;;;;-7.61;100.00;102319.11;1695694;83;21035;-84
2023/01/08 05:25:38;;;;;;;6.28;2.27;;;;;;;-7.65;100.00;102322.45;1704483;83;21945;-84
2023/01/08 05:28:25;;;;;;;6.53;2.42;;;;;;;-7.67;100.00;102322.20;1713005;83;20996;-83
2023/01/08 05:31:12;;;;;;;8.68;3.02;;;;;;;-7.71;100.00;102326.08;1705488;84;20978;-83
2023/01/08 05:33:59;;;;;;;8.60;3.37;;;;;;;-7.78;100.00;102312.40;1695576;83;21474;-84
2023/01/08 05:36:44;;;;;;;4.70;2.95;;;;;;;-7.81;100.00;102322.77;1652712;85;21118;-84
2023/01/08 05:39:31;;;;;;;8.95;3.50;;;;;;;-7.84;100.00;102326.11;1664625;84;21098;-83
2023/01/08 05:42:20;;;;;;;7.12;2.80;;;;;;;-7.92;100.00;102328.00;1714700;82;21008;-84
2023/01/08 05:45:08;;;;;;;8.68;2.45;;;;;;;-7.92;100.00;102328.00;1704410;83;20989;-83
2023/01/08 05:47:54;;;;;;;7.85;3.17;;;;;;;-7.96;100.00;102334.52;1714779;83;21549;-84
2023/01/08 05:50:39;;;;;;;4.80;2.85;;;;;;;-8.01;100.00;102339.28;1652888;85;21062;-84
2023/01/08 05:53:26;;;;;;;5.50;2.72;;;;;;;-8.04;100.00;102339.52;1682467;83;21022;-84
2023/01/08 05:56:13;;;;;;;5.45;2.85;;;;;;;-8.08;100.00;102334.92;1699538;81;21045;-84
2023/01/08 05:59:03;;;;;;;10.15;3.35;;;;;;;-8.09;100.00;102341.66;1691447;82;20998;-83
2023/01/08 06:01:49;;;;;;;6.35;2.83;;;;;;;-8.12;100.00;102349.84;1675473;83;21051;-83
2023/01/08 06:04:35;;;;;;;8.95;2.50;;;;;;;-8.14;100.00;102347.29;1686384;84;21053;-83
2023/01/08 06:07:21;;;;;;;9.08;3.20;;;;;;;-8.18;100.00;102348.48;1714660;83;21430;-83
2023/01/08 06:10:09;;;;;;;4.37;3.02;;;;;;;-8.22;100.00;102343.87;1704052;84;20970;-84
2023/01/08 06:12:55;;;;;;;6.87;3.47;;;;;;;-8.24;100.00;102347.10;1714469;83;20984;-84
2023/01/08 06:15:45;;;;;;;6.75;2.77;;;;;;;-8.25;100.00;102347.23;1704917;83;20984;-84
2023/01/08 06:18:34;;;;;;;8.58;3.47;;;;;;;-8.20;100.00;102358.84;1694376;83;20973;-84
2023/01/08 06:21:21;;;;;;;8.30;2.77;;;;;;;-8.17;100.00;102358.13;1666441;84;21036;-83
2023/01/08 06:24:08;;;;;;;9.18;3.25;;;;;;;-8.15;100.00;102356.70;1712692;83;21431;-84
2023/01/08 06:26:55;;;;;;;6.15;3.30;;;;;;;-8.15;100.00;102358.03;1704371;83;21049;-83
2023/01/08 06:29:40;;;;;;;7.37;3.60;;;;;;;-8.13;100.00;102360.10;1695696;83;21444;-84
2023/01/08 06:32:26;;;;;;;11.88;4.60;;;;;;;-8.10;100.00;102363.36;1687616;84;20978;-84
2023/01/08 06:35:12;;;;;;;4.80;3.47;;;;;;;-8.06;100.00;102366.63;1695364;83;20963;-83
2023/01/08 06:37:57;;;;;;;8.13;3.08;;;;;;;-8.00;100.00;102371.51;1704532;83;21478;-82
2023/01/08 06:40:51;;;;;;;8.25;3.75;;;;;;;-7.92;100.00;102372.28;1684991;84;21355;-83
2023/01/08 06:43:38;;;;;;;12.35;5.03;;;;;;;-7.89;100.00;102368.91;1681826;84;21444;-84
2023/01/08 06:46:23;;;;;;;9.88;3.90;;;;;;;-7.82;100.00;102366.17;1676394;84;21010;-84
2023/01/08 06:49:09;;;;;;;8.03;3.80;;;;;;;-7.74;100.00;102362.11;1683245;82;21022;-84
2023/01/08 06:51:56;;;;;;;10.72;3.72;;;;;;;-7.68;100.00;102360.35;1710515;82;21029;-83
2023/01/08 06:54:41;;;;;;;10.40;3.70;;;;;;;-7.61;100.00;102373.55;1710894;82;20978;-83
2023/01/08 06:57:27;;;;;;;10.70;3.70;;;;;;;-7.51;100.00;102374.55;1686288;83;21010;-83
2023/01/08 07:00:13;;;;;;;5.15;2.58;;;;;;;-7.45;100.00;102374.56;1717091;83;21536;-83
2023/01/08 07:02:58;;;;;;;6.10;3.02;;;;;;;-7.37;100.00;102375.70;1718074;83;21101;-83
2023/01/08 07:05:49;;;;;;;7.42;3.20;;;;;;;-7.37;100.00;102375.70;1695202;81;21125;-83
2023/01/08 07:08:36;;;;;;;9.88;4.10;;;;;;;-7.37;100.00;102370.84;1707673;82;21381;-83
2023/01/08 07:11:22;;;;;;;7.65;3.42;;;;;;;-7.36;100.00;102373.39;1663357;84;21083;-84
2023/01/08 07:14:07;;;;;;;8.48;3.90;;;;;;;-7.39;100.00;102365.67;1618823;86;21498;-85
2023/01/08 07:17:01;;;;;;;10.48;4.20;;;;;;;-7.35;100.00;102373.75;1641719;85;21086;-85
2023/01/08 07:19:50;;;;;;;11.73;3.40;;;;;;;-7.29;100.00;102374.25;1648392;85;21480;-85
2023/01/08 07:22:35;;;;;;;11.08;3.90;;;;;;;-7.09;100.00;102372.28;1628287;86;21086;-85
2023/01/08 07:25:23;;;;;;;10.30;3.47;;;;;;;-7.09;100.00;102372.28;1627608;87;21440;-84
2023/01/08 07:28:11;;;;;;;6.72;3.20;;;;;;;-7.02;100.00;102377.50;1697660;84;21589;-85
2023/01/08 07:31:09;;;;;;;6.83;2.40;;;;;;;-6.91;100.00;102375.34;1685896;83;21477;-85
2023/01/08 07:33:55;;;;;;;9.90;3.50;;;;;;;-6.85;100.00;102368.69;1673726;85;21117;-85
2023/01/08 07:36:41;;;;;;;9.43;3.55;;;;;;;-6.80;100.00;102367.39;1626944;86;21014;-85
2023/01/08 07:39:28;;;;;;;5.25;2.87;;;;;;;-6.75;100.00;102374.98;1603306;89;21031;-84
2023/01/08 07:42:15;;;;;;;10.82;3.95;;;;;;;-6.72;100.00;102370.78;1624995;86;21543;-85
2023/01/08 07:45:07;;;;;;;13.90;4.40;;;;;;;-6.66;100.00;102381.41;1690048;84;20986;-84
2023/01/08 07:47:56;;;;;;;9.95;4.33;;;;;;;-6.61;100.00;102369.45;1676749;83;20999;-84
2023/01/08 07:50:42;;;;;;;14.23;4.65;;;;;;;-6.57;100.00;102368.25;1678639;84;21448;-84
2023/01/08 07:53:34;;;;;;;12.70;3.95;;;;;;;-6.53;100.00;102383.02;1676832;83;21021;-84
2023/01/08 07:56:19;;;;;;;9.28;3.70;;;;;;;-6.49;100.00;102376.95;1686556;83;21464;-84
2023/01/08 07:59:06;;;;;;;12.90;3.83;;;;;;;-6.43;100.00;102384.92;1673401;84;21074;-84
2023/01/08 08:01:51;;;;;;;10.30;4.20;;;;;;;-6.39;100.00;102394.37;1682515;84;21474;-85
2023/01/08 08:04:46;;;;;;;17.50;4.25;;;;;;;-6.36;100.00;102392.79;1679407;83;21514;-84
2023/01/08 08:07:32;;;;;;;17.32;4.45;;;;;;;-6.27;100.00;102388.08;1622926;85;21206;-84
2023/01/08 08:10:22;;;;;;;13.18;3.98;;;;;;;-6.18;100.00;102389.15;1662952;84;21094;-84
2023/01/08 08:13:07;;;;;;;14.68;5.53;;;;;;;-6.13;100.00;102395.82;1679359;84;20998;-84
2023/01/08 08:15:53;;;;;;;14.68;3.27;;;;;;;-6.11;100.00;102389.89;1706674;82;20995;-85
2023/01/08 08:18:46;;;;;;;14.00;4.03;;;;;;;-6.03;100.00;102395.06;1708241;82;21130;-84
2023/01/08 08:21:33;;;;;;;20.45;5.83;;;;;;;-5.98;100.00;102391.55;1704378;81;21015;-85
2023/01/08 08:24:20;;;;;;;17.52;6.25;;;;;;;-5.93;100.00;102397.34;1683447;83;22005;-85
2023/01/08 08:27:05;;;;;;;18.40;5.12;;;;;;;-5.88;100.00;102403.14;1707749;83;21023;-85
2023/01/08 08:29:49;;;;;;;19.30;5.17;;;;;;;-5.79;100.00;102398.38;1695616;82;21046;-85
2023/01/08 08:32:35;;;;;;;15.03;4.75;;;;;;;-5.74;100.00;102400.17;1643966;84;21514;-84
2023/01/08 08:35:27;;;;;;;15.98;4.92;;;;;;;-5.68;100.00;102401.03;1735432;82;21663;-84
2023/01/08 08:38:19;;;;;;;16.45;4.62;;;;;;;-5.62;100.00;102391.19;1737008;82;21010;-84
2023/01/08 08:41:09;;;;;;;18.62;6.40;;;;;;;-5.55;100.00;102388.03;1734741;81;21499;-85
2023/01/08 08:43:56;;;;;;;15.65;5.33;;;;;;;-5.49;100.00;102387.52;1648482;85;21006;-85
2023/01/08 08:46:46;;;;;;;20.88;6.17;;;;;;;-5.44;100.00;102391.97;1691130;82;21520;-85
2023/01/08 08:49:32;;;;;;;18.35;5.95;;;;;;;-5.40;100.00;102390.77;1706516;82;21619;-85
2023/01/08 08:52:18;;;;;;;22.77;5.70;;;;;;;-5.38;100.00;102384.82;1684140;83;20983;-85
2023/01/08 08:55:04;;;;;;;36.98;10.63;;;;;;;-5.35;100.00;102374.39;1691462;82;20999;-85
2023/01/08 08:57:53;;;;;;;34.60;9.63;;;;;;;-5.32;100.00;102377.63;1693956;83;21102;-85
2023/01/08 09:00:40;;;;;;;24.80;7.10;;;;;;;-5.30;100.00;102378.36;1707850;82;21101;-84
2023/01/08 09:03:28;;;;;;;18.70;6.40;;;;;;;-5.28;100.00;102366.25;1674751;84;21023;-86
2023/01/08 09:40:03;;;;;;;23.30;7.00;;;;;;;-6.49;100.00;102331.13;107059;1277;601141;-84
2023/01/08 09:42:59;;;;;;;29.20;8.00;;;;;;;-6.44;100.00;102333.25;108377;1267;60978;-84
2023/01/08 09:45:50;;;;;;;23.00;7.00;;;;;;;-6.38;100.00;102326.67;108372;1267;60541;-85
2023/01/08 09:48:39;;;;;;;21.60;7.80;;;;;;;-6.32;100.00;102318.22;108233;1266;74326;-85
2023/01/08 09:51:37;;;;;;;22.00;6.70;;;;;;;-6.31;100.00;102315.66;108325;1267;69674;-85
2023/01/08 09:54:25;;;;;;;15.00;6.40;;;;;;;-6.29;100.00;102314.04;108221;1266;218858;-85
2023/01/08 09:57:14;;;;;;;19.30;7.20;;;;;;;-6.25;100.00;102320.30;108490;1264;62637;-85
2023/01/08 10:00:03;;;;;;;43.00;11.80;;;;;;;-6.18;100.00;102317.11;108390;1263;61491;-84
2023/01/08 10:02:52;;;;;;;21.40;8.20;;;;;;;-6.13;100.00;102312.27;108497;1263;73816;-85
2023/01/08 10:05:40;;;;;;;14.20;6.10;;;;;;;-6.08;100.00;102314.81;108429;1264;70914;-85
2023/01/08 10:08:29;;;;;;;20.30;9.00;;;;;;;-6.03;100.00;102310.80;108517;1264;73816;-85
2023/01/08 10:11:16;;;;;;;49.30;17.60;;;;;;;-5.99;100.00;102309.40;108444;1264;62605;-85
2023/01/08 10:14:04;;;;;;;21.80;8.50;;;;;;;-5.97;100.00;102308.72;108606;1263;62044;-85
2023/01/08 10:17:13;;;;;;;17.50;6.60;;;;;;;-5.95;100.00;102311.38;108433;1263;75205;-84
2023/01/08 10:20:02;;;;;;;48.30;15.60;;;;;;;-5.94;100.00;102301.84;108617;1260;69115;-85
2023/01/08 10:22:53;;;;;;;17.50;6.40;;;;;;;-5.93;100.00;102297.14;108670;1260;74516;-85
2023/01/08 10:25:59;;;;;;;41.00;8.90;;;;;;;-5.92;100.00;102296.29;108466;1263;61633;-85
2023/01/08 10:28:47;;;;;;;24.40;8.10;;;;;;;-5.89;100.00;102292.89;108858;1257;61325;-85
2023/01/08 10:31:52;;;;;;;34.90;13.00;;;;;;;-5.88;100.00;102292.45;108879;1257;73463;-85
2023/01/08 10:34:42;;;;;;;32.30;9.40;;;;;;;-5.87;100.00;102293.58;108862;1257;68881;-85
2023/01/08 10:37:41;;;;;;;58.10;16.10;;;;;;;-5.86;100.00;102297.07;108888;1257;74949;-85
2023/01/08 10:40:44;;;;;;;45.10;14.50;;;;;;;-5.86;100.00;102292.84;108930;1256;60002;-85
2023/01/08 10:43:34;;;;;;;42.10;13.90;;;;;;;-5.85;100.00;102286.38;108822;1256;61658;-85
2023/01/08 10:46:36;;;;;;;25.90;8.50;;;;;;;-5.85;100.00;102279.45;108883;1257;77121;-86
2023/01/08 10:49:40;;;;;;;22.70;7.50;;;;;;;-5.83;100.00;102282.45;108900;1261;71065;-86
2023/01/08 10:52:35;;;;;;;18.70;5.80;;;;;;;-5.86;100.00;102279.84;108812;1257;74136;-85
2023/01/08 10:55:24;;;;;;;20.70;8.30;;;;;;;-5.87;100.00;102275.34;108810;1257;61770;-86
2023/01/08 10:58:15;;;;;;;31.70;9.80;;;;;;;-5.86;100.00;102271.83;108875;1257;61828;-86
2023/01/08 11:01:32;;;;;;;13.00;5.90;;;;;;;-5.82;100.00;102272.80;108858;1257;72099;-85
2023/01/08 11:04:22;;;;;;;18.00;6.20;;;;;;;-5.80;100.00;102268.52;108886;1258;68891;-86
2023/01/08 11:07:14;;;;;;;111.50;34.90;;;;;;;-5.77;100.00;102267.92;108900;1257;74856;-85
2023/01/08 11:10:02;;;;;;;;;;;;;;;-5.74;100.00;102266.94;108795;1257;61155;-85
2023/01/08 11:13:00;;;;;;;17.70;6.90;;;;;;;-5.72;100.00;102263.95;108903;1257;61035;-86
2023/01/08 11:15:57;;;;;;;23.20;8.20;;;;;;;-5.71;100.00;102260.65;108905;1257;74891;-85
2023/01/08 11:18:46;;;;;;;27.60;10.00;;;;;;;-5.71;100.00;102258.34;108839;1256;68974;-86
2023/01/08 11:21:35;;;;;;;21.90;8.50;;;;;;;-5.71;100.00;102256.04;108868;1260;71948;-85
2023/01/08 11:24:31;;;;;;;23.40;9.10;;;;;;;-5.70;100.00;102255.59;108903;1256;63361;-85
2023/01/08 11:27:31;;;;;;;20.70;6.90;;;;;;;-5.67;100.00;102254.52;108839;1260;62717;-86
2023/01/08 11:30:20;;;;;;;22.10;9.50;;;;;;;-5.65;100.00;102255.70;108895;1256;74435;-83
2023/01/08 11:33:12;;;;;;;16.00;7.30;;;;;;;-5.63;100.00;102254.13;109116;1256;70018;-83
2023/01/08 11:36:09;;;;;;;22.00;8.00;;;;;;;-5.63;100.00;102256.13;108853;1256;74953;-83
2023/01/08 11:38:56;;;;;;;24.50;7.80;;;;;;;-5.63;100.00;102259.26;108849;1256;61769;-83
2023/01/08 11:42:08;;;;;;;28.10;8.70;;;;;;;-5.60;100.00;102260.48;108889;1257;63005;-85
2023/01/08 11:45:14;;;;;;;17.60;7.90;;;;;;;-5.59;100.00;102260.94;108821;1257;75200;-83
2023/01/08 11:48:39;;;;;;;22.90;9.70;;;;;;;-5.61;100.00;102259.83;108941;1257;70722;-85
2023/01/08 11:51:39;;;;;;;11.90;5.30;;;;;;;-5.64;100.00;102256.70;108844;1259;73729;-85
2023/01/08 11:54:30;;;;;;;19.50;7.90;;;;;;;-5.62;100.00;102256.58;108932;1257;60579;-86
2023/01/08 11:58:06;;;;;;;15.60;5.60;;;;;;;-5.59;100.00;102252.08;108883;1257;61294;-83
2023/01/08 12:01:02;;;;;;;34.10;10.90;;;;;;;-5.55;100.00;102250.11;108929;1257;74639;-83
2023/01/08 12:04:28;;;;;;;25.90;8.60;;;;;;;-5.52;100.00;102250.92;108901;1257;70801;-83
2023/01/08 12:07:28;;;;;;;24.10;7.50;;;;;;;-5.51;100.00;102257.58;108959;1257;72731;-93
2023/01/08 12:10:27;;;;;;;17.70;7.70;;;;;;;-5.53;100.00;102255.14;109417;1254;61389;-92
2023/01/08 12:13:39;;;;;;;31.40;10.10;;;;;;;-5.51;100.00;102248.73;109438;1253;61436;-89
2023/01/08 12:16:57;;;;;;;16.60;7.30;;;;;;;-5.45;100.00;102241.96;109232;1254;75665;-89
2023/01/08 12:19:52;;;;;;;16.30;6.60;;;;;;;-5.41;100.00;102241.63;109270;1251;69919;-90
2023/01/08 12:22:54;;;;;;;16.00;6.10;;;;;;;-5.42;100.00;102241.17;109312;1253;74838;-89
2023/01/08 12:25:56;;;;;;;13.30;5.80;;;;;;;-5.43;100.00;102242.65;109252;1252;62445;-89
2023/01/08 12:28:53;;;;;;;11.30;5.40;;;;;;;-5.41;100.00;102239.83;109213;1254;62553;-90
2023/01/08 12:32:09;;;;;;;12.80;6.50;;;;;;;-5.37;100.00;102237.95;109285;1253;74052;-89
2023/01/08 12:35:10;;;;;;;13.90;4.50;;;;;;;-5.36;100.00;102234.11;109307;1254;69584;-89
2023/01/08 12:38:02;;;;;;;16.40;6.00;;;;;;;-5.42;100.00;102229.80;109256;1254;73900;-89
2023/01/08 12:41:03;;;;;;;21.90;7.10;;;;;;;-5.43;100.00;102227.59;109269;1252;61750;-93
2023/01/08 12:44:04;;;;;;;15.40;6.10;;;;;;;-5.44;100.00;102222.84;109485;1252;60548;-92
2023/01/08 12:46:52;;;;;;;19.60;7.00;;;;;;;-5.46;100.00;102224.14;109299;1254;74794;-90
2023/01/08 12:49:43;;;;;;;28.40;11.10;;;;;;;-5.47;100.00;102227.36;109277;1254;71521;-89
2023/01/08 12:52:42;;;;;;;24.20;6.80;;;;;;;-5.47;100.00;102223.69;109179;1253;83739;-89
2023/01/08 12:55:39;;;;;;;35.30;11.90;;;;;;;-5.48;100.00;102223.44;109207;1253;61694;-89
2023/01/08 12:58:56;;;;;;;20.20;7.70;;;;;;;-5.52;100.00;102225.32;109103;1254;62448;-88
2023/01/08 13:01:58;;;;;;;16.70;6.50;;;;;;;-5.56;100.00;102226.77;109092;1253;75749;-88
2023/01/08 13:04:47;;;;;;;26.70;10.20;;;;;;;-5.58;100.00;102230.66;109039;1253;69399;-90
2023/01/08 13:07:46;;;;;;;14.10;5.70;;;;;;;-5.59;100.00;102232.50;109055;1254;74984;-89
2023/01/08 13:10:43;;;;;;;17.80;6.80;;;;;;;-5.58;100.00;102228.88;108969;1254;58168;-89
2023/01/08 13:13:35;;;;;;;21.30;8.50;;;;;;;-5.59;100.00;102224.40;109088;1256;62049;-89
2023/01/08 13:16:24;;;;;;;145.20;48.10;;;;;;;-5.64;100.00;102219.60;109070;1254;75119;-88
2023/01/08 13:19:29;;;;;;;64.50;22.40;;;;;;;-5.67;100.00;102222.19;109009;1254;68680;-88
2023/01/08 13:22:27;;;;;;;59.60;21.30;;;;;;;-5.70;100.00;102220.42;109101;1254;74859;-89
2023/01/08 13:25:15;;;;;;;70.40;24.30;;;;;;;-5.72;100.00;102224.87;109159;1254;60676;-90
2023/01/08 13:28:26;;;;;;;57.30;23.60;;;;;;;-5.75;100.00;102227.66;109160;1254;58664;-91
2023/01/08 13:31:20;;;;;;;54.30;21.30;;;;;;;-5.80;100.00;102229.50;109060;1254;74663;-88
2023/01/08 13:34:19;;;;;;;48.30;13.90;;;;;;;-5.83;100.00;102230.23;108984;1254;70890;-89
2023/01/08 13:37:07;;;;;;;50.10;17.00;;;;;;;-5.85;100.00;102228.13;109066;1254;73894;-89